Time;durP1;ratioP1;P1;durP2;ratioP2;P2;SDS_P1;SDS_P2;PMS_P1;PMS_P2;Temp;Humidity;BMP_temperature;BMP_pressure;BME280_temperature;BME280_humidity;BME280_pressure;Samples;Min_cycle;Max_cycle;Signal;HPM_P1;HPM_P2
2020/12/11 00:00:38;;;;;;;4.38;2.35;;;17.60;32.10;;;;;;8294086;28;20126;-46
2020/12/11 00:04:39;;;;;;;2.93;2.27;;;17.60;32.10;;;;;;8264238;28;20042;-46
2020/12/11 00:08:39;;;;;;;5.77;2.30;;;17.60;32.10;;;;;;8294268;28;20037;-47
2020/12/11 00:12:40;;;;;;;2.87;2.57;;;17.60;32.10;;;;;;8326927;28;20144;-47
2020/12/11 00:16:41;;;;;;;2.78;2.13;;;17.60;32.10;;;;;;8333921;28;20453;-47
2020/12/11 00:20:41;;;;;;;2.67;2.37;;;17.60;32.70;;;;;;8310406;28;20041;-46
2020/12/11 00:24:42;;;;;;;4.57;2.67;;;17.60;32.10;;;;;;8293809;28;20479;-46
2020/12/11 00:28:42;;;;;;;3.63;2.07;;;17.60;32.10;;;;;;8305491;28;20031;-46
2020/12/11 00:32:43;;;;;;;2.57;2.20;;;17.50;32.10;;;;;;8333463;28;20050;-45
2020/12/11 00:36:43;;;;;;;2.83;2.20;;;17.60;32.10;;;;;;8296547;28;20038;-46
2020/12/11 00:40:44;;;;;;;2.70;2.17;;;17.60;32.10;;;;;;8296520;28;20487;-45
2020/12/11 00:44:45;;;;;;;2.77;2.47;;;17.50;32.10;;;;;;8295944;28;20054;-46
2020/12/11 00:48:45;;;;;;;3.27;2.13;;;17.50;32.10;;;;;;8295130;28;20113;-46
2020/12/11 00:52:46;;;;;;;2.27;2.07;;;17.50;32.10;;;;;;8299180;28;20277;-47
2020/12/11 00:56:47;;;;;;;3.33;2.37;;;17.50;32.10;;;;;;8277192;28;20088;-46
2020/12/11 01:00:47;;;;;;;3.37;2.23;;;17.50;32.10;;;;;;8263790;28;20152;-45
2020/12/11 01:04:48;;;;;;;4.57;2.40;;;17.50;32.00;;;;;;8298566;28;20264;-46
2020/12/11 01:08:48;;;;;;;1.80;1.70;;;17.50;32.10;;;;;;8332885;28;20494;-45
2020/12/11 01:12:49;;;;;;;3.13;2.17;;;17.50;32.10;;;;;;8299125;28;20057;-46
2020/12/11 01:16:49;;;;;;;2.90;1.83;;;17.50;32.10;;;;;;8300621;28;20045;-46
2020/12/11 01:20:50;;;;;;;3.20;2.40;;;17.50;32.10;;;;;;8313772;28;20029;-48
2020/12/11 01:24:50;;;;;;;2.13;1.90;;;17.60;32.10;;;;;;8327119;28;20037;-45
2020/12/11 01:28:51;;;;;;;2.70;2.20;;;17.50;32.00;;;;;;8293910;28;20080;-45
2020/12/11 01:32:51;;;;;;;3.00;2.17;;;17.50;32.10;;;;;;8292638;28;20049;-45
2020/12/11 01:36:52;;;;;;;4.57;1.90;;;17.50;32.10;;;;;;8303607;28;20037;-45
2020/12/11 01:40:53;;;;;;;2.50;2.17;;;17.50;32.10;;;;;;8314463;28;20042;-46
2020/12/11 01:44:54;;;;;;;2.40;2.00;;;17.50;32.10;;;;;;8276886;28;20046;-45
2020/12/11 01:48:55;;;;;;;1.83;1.70;;;17.50;32.10;;;;;;8276317;28;20105;-46
2020/12/11 01:52:56;;;;;;;;;;;17.50;32.10;;;;;;8261674;28;20057;-45
2020/12/11 01:57:04;;;;;;;2.38;1.92;;;17.50;32.00;;;;;;8281553;28;19960;-45
2020/12/11 02:01:05;;;;;;;1.88;1.77;;;17.50;32.00;;;;;;8291602;28;20117;-46
2020/12/11 02:05:09;;;;;;;3.53;2.23;;;17.50;32.00;;;;;;8261112;28;20042;-45
2020/12/11 02:09:09;;;;;;;2.72;2.25;;;17.50;32.00;;;;;;8260847;28;20581;-45
2020/12/11 02:13:10;;;;;;;2.37;2.13;;;17.50;32.50;;;;;;8258961;28;20058;-46
2020/12/11 02:17:11;;;;;;;2.67;2.27;;;17.50;32.10;;;;;;8261336;28;20105;-46
2020/12/11 02:21:11;;;;;;;2.33;2.00;;;17.50;32.00;;;;;;8285700;28;20487;-47
2020/12/11 02:25:12;;;;;;;2.70;2.13;;;17.50;32.00;;;;;;8267659;28;20434;-46
2020/12/11 02:29:12;;;;;;;3.13;2.40;;;17.50;32.00;;;;;;8292579;28;20070;-49
2020/12/11 02:33:13;;;;;;;2.67;2.27;;;17.50;32.00;;;;;;8292749;28;20352;-46
2020/12/11 02:37:13;;;;;;;2.60;2.00;;;17.50;32.00;;;;;;8295274;28;20038;-46
2020/12/11 02:41:14;;;;;;;3.07;2.13;;;17.50;32.00;;;;;;8292799;28;20034;-46
2020/12/11 02:45:14;;;;;;;2.50;2.10;;;17.40;31.90;;;;;;8292367;28;20044;-45
2020/12/11 02:49:15;;;;;;;4.37;2.03;;;17.50;32.10;;;;;;8291190;28;20038;-47
2020/12/11 02:53:15;;;;;;;2.43;2.23;;;17.40;32.50;;;;;;8311195;28;20045;-45
2020/12/11 02:57:16;;;;;;;2.77;2.03;;;17.50;32.00;;;;;;8294530;28;20494;-46
2020/12/11 03:01:16;;;;;;;2.60;1.80;;;17.40;32.00;;;;;;8266429;28;20050;-46
2020/12/11 03:05:17;;;;;;;2.30;2.10;;;17.40;31.90;;;;;;8277881;28;20030;-47
2020/12/11 03:09:18;;;;;;;2.20;1.83;;;17.40;31.90;;;;;;8258725;28;20515;-48
2020/12/11 03:13:18;;;;;;;2.23;2.03;;;17.40;31.90;;;;;;8268913;28;20137;-46
2020/12/11 03:17:18;;;;;;;2.60;2.00;;;17.40;32.00;;;;;;8277099;28;20038;-46
2020/12/11 03:21:19;;;;;;;4.50;2.97;;;17.50;32.00;;;;;;8282474;28;20034;-45
2020/12/11 03:25:20;;;;;;;2.70;1.97;;;17.40;32.00;;;;;;8290165;28;20054;-50
2020/12/11 03:29:20;;;;;;;3.37;2.50;;;17.50;32.10;;;;;;8297503;28;20049;-49
2020/12/11 03:33:21;;;;;;;2.70;2.10;;;17.40;31.90;;;;;;8298263;28;20042;-45
2020/12/11 03:37:21;;;;;;;2.20;2.00;;;17.40;32.00;;;;;;8295984;28;20168;-46
2020/12/11 03:41:22;;;;;;;2.30;2.10;;;17.50;32.00;;;;;;8297552;28;20455;-45
2020/12/11 03:45:22;;;;;;;2.47;2.00;;;17.40;31.90;;;;;;8278714;28;20031;-45
2020/12/11 03:49:23;;;;;;;2.67;1.83;;;17.40;32.00;;;;;;8263878;28;20038;-46
2020/12/11 03:53:24;;;;;;;2.17;1.87;;;17.40;31.90;;;;;;8265040;28;20046;-46
2020/12/11 03:57:25;;;;;;;2.53;2.15;;;17.40;32.00;;;;;;8276424;28;20030;-45
2020/12/11 04:01:25;;;;;;;1.93;1.70;;;17.40;32.00;;;;;;8293585;28;20041;-46
2020/12/11 04:05:26;;;;;;;2.43;1.83;;;17.40;32.00;;;;;;8269018;28;20521;-46
2020/12/11 04:09:26;;;;;;;2.30;1.93;;;17.40;32.00;;;;;;8289134;28;20482;-46
2020/12/11 04:13:27;;;;;;;2.13;1.93;;;17.40;32.00;;;;;;8294585;28;20061;-46
2020/12/11 04:17:27;;;;;;;2.13;1.83;;;17.40;32.00;;;;;;8312488;28;20112;-45
2020/12/11 04:21:28;;;;;;;1.87;1.77;;;17.40;32.10;;;;;;8333766;28;20053;-46
2020/12/11 04:25:28;;;;;;;2.10;1.90;;;17.40;32.10;;;;;;8266333;28;20452;-46
2020/12/11 04:29:29;;;;;;;3.43;2.00;;;17.50;32.20;;;;;;8280245;28;20038;-45
2020/12/11 04:33:29;;;;;;;2.30;1.60;;;17.50;32.20;;;;;;8278651;28;20038;-44
2020/12/11 04:37:30;;;;;;;2.97;2.10;;;17.60;32.10;;;;;;8300438;28;20037;-45
2020/12/11 04:41:36;;;;;;;2.53;1.83;;;17.60;32.10;;;;;;8263974;28;20035;-48
2020/12/11 04:45:39;;;;;;;2.75;1.83;;;17.60;32.10;;;;;;8261913;28;20038;-46
2020/12/11 04:49:40;;;;;;;2.00;1.80;;;17.70;32.10;;;;;;8263425;28;20125;-46
2020/12/11 04:53:41;;;;;;;2.20;1.98;;;17.70;32.10;;;;;;8263561;28;20046;-45
2020/12/11 04:57:48;;;;;;;2.17;1.80;;;17.70;32.00;;;;;;8267507;28;20088;-45
2020/12/11 05:01:49;;;;;;;2.67;1.85;;;17.70;32.00;;;;;;8284263;28;20495;-45
2020/12/11 05:05:49;;;;;;;2.40;1.90;;;17.70;32.00;;;;;;8281698;28;20037;-46
2020/12/11 05:09:57;;;;;;;2.53;2.00;;;17.70;32.00;;;;;;8293542;28;20109;-46
2020/12/11 05:13:57;;;;;;;1.73;1.63;;;17.70;32.00;;;;;;8285232;28;20049;-45
2020/12/11 05:17:58;;;;;;;2.83;1.80;;;17.70;32.00;;;;;;8264700;28;20042;-46
2020/12/11 05:22:09;;;;;;;2.83;2.13;;;17.70;32.00;;;;;;8306806;28;20030;-46
2020/12/11 05:26:19;;;;;;;2.28;2.05;;;17.70;31.90;;;;;;8293787;28;20069;-45
2020/12/11 05:30:22;;;;;;;4.55;2.35;;;17.60;31.90;;;;;;8287955;28;20066;-45
2020/12/11 05:34:23;;;;;;;2.30;1.92;;;17.60;31.80;;;;;;8264633;28;20069;-45
2020/12/11 05:38:23;;;;;;;2.17;1.90;;;17.60;31.90;;;;;;8290895;28;20047;-46
2020/12/11 05:42:25;;;;;;;3.50;1.90;;;17.60;31.90;;;;;;8275069;28;20108;-46
2020/12/11 05:46:32;;;;;;;3.88;2.10;;;17.50;31.90;;;;;;8267332;28;20038;-46
2020/12/11 05:50:34;;;;;;;2.45;1.85;;;17.50;31.90;;;;;;8277255;28;20395;-46
2020/12/11 05:54:44;;;;;;;2.50;1.95;;;17.50;32.00;;;;;;8264138;28;20515;-47
2020/12/11 05:58:46;;;;;;;3.28;2.10;;;17.50;32.00;;;;;;8309540;28;20030;-47
2020/12/11 06:02:48;;;;;;;2.75;1.90;;;17.50;32.10;;;;;;8293085;28;20092;-46
2020/12/11 06:06:56;;;;;;;2.88;1.80;;;17.50;32.10;;;;;;8291605;28;20125;-47
2020/12/11 06:11:01;;;;;;;3.55;1.80;;;17.50;32.20;;;;;;8309676;28;20233;-47
2020/12/11 06:15:25;;;;;;;2.20;1.75;;;17.60;32.10;;;;;;8294119;28;20175;-47
2020/12/11 06:19:27;;;;;;;1.75;1.63;;;17.60;32.10;;;;;;8291522;28;20062;-44
2020/12/11 06:23:29;;;;;;;2.67;2.10;;;17.70;32.10;;;;;;8277007;28;20056;-45
2020/12/11 06:27:31;;;;;;;3.00;1.85;;;17.70;32.00;;;;;;8282937;28;20430;-42
2020/12/11 06:31:46;;;;;;;3.08;1.75;;;17.70;32.00;;;;;;8289003;28;20500;-45
2020/12/11 06:35:56;;;;;;;1.85;1.75;;;17.70;32.00;;;;;;8260633;28;20037;-45
2020/12/11 06:39:57;;;;;;;2.47;2.03;;;17.70;32.00;;;;;;8258580;28;20052;-45
2020/12/11 06:44:18;;;;;;;2.37;1.90;;;17.70;32.00;;;;;;8272243;28;20491;-46
2020/12/11 06:48:18;;;;;;;2.10;1.90;;;17.70;31.90;;;;;;8286168;28;20372;-46
2020/12/11 06:52:19;;;;;;;2.23;2.00;;;17.70;31.90;;;;;;8269247;28;20038;-46
2020/12/11 06:56:39;;;;;;;2.83;2.10;;;17.70;31.90;;;;;;8305329;28;20030;-46
2020/12/11 07:00:51;;;;;;;3.25;2.20;;;17.60;31.80;;;;;;8270517;28;20042;-45
2020/12/11 07:04:52;;;;;;;1.77;1.67;;;17.60;31.80;;;;;;8296427;28;20045;-46
2020/12/11 07:08:52;;;;;;;3.25;1.92;;;17.60;31.90;;;;;;8298908;28;20095;-46
2020/12/11 07:12:53;;;;;;;2.40;2.07;;;17.60;31.90;;;;;;8301344;28;20666;-45
2020/12/11 07:16:54;;;;;;;3.70;2.30;;;17.50;31.90;;;;;;8313598;28;20045;-45
2020/12/11 07:20:56;;;;;;;2.20;1.87;;;17.50;31.90;;;;;;8280818;28;20038;-45
2020/12/11 07:24:57;;;;;;;2.53;1.75;;;17.50;32.00;;;;;;8272047;28;20088;-46
2020/12/11 07:29:06;;;;;;;2.80;2.20;;;17.50;32.00;;;;;;8302704;28;20042;-46
2020/12/11 07:33:09;;;;;;;2.60;1.77;;;17.50;32.00;;;;;;8297978;28;20111;-45
2020/12/11 07:37:10;;;;;;;3.15;1.70;;;17.50;32.00;;;;;;8319696;28;20455;-45
2020/12/11 07:41:11;;;;;;;2.47;2.07;;;17.60;32.00;;;;;;8311652;28;20037;-45
2020/12/11 07:45:21;;;;;;;3.20;2.43;;;17.60;32.00;;;;;;8307781;28;20027;-46
2020/12/11 07:49:36;;;;;;;2.22;2.03;;;17.60;32.00;;;;;;8300818;28;20521;-45
2020/12/11 07:53:37;;;;;;;2.30;1.95;;;17.70;32.00;;;;;;8285559;28;20091;-45
2020/12/11 07:57:37;;;;;;;3.70;2.23;;;17.70;32.00;;;;;;8270716;28;20057;-46
2020/12/11 08:01:39;;;;;;;2.90;1.90;;;17.70;31.90;;;;;;8264778;28;20046;-46
2020/12/11 08:05:40;;;;;;;3.20;2.30;;;17.70;31.90;;;;;;8265814;28;20597;-45
2020/12/11 08:09:40;;;;;;;2.77;2.00;;;17.70;31.80;;;;;;8267902;28;20042;-46
2020/12/11 08:14:01;;;;;;;2.53;1.80;;;17.70;31.90;;;;;;8309959;28;20517;-46
2020/12/11 08:18:25;;;;;;;2.37;2.17;;;17.70;31.80;;;;;;8295182;28;20034;-46
2020/12/11 08:22:37;;;;;;;2.60;1.85;;;17.70;31.80;;;;;;8309161;28;20038;-46
2020/12/11 08:26:39;;;;;;;2.47;2.25;;;17.70;31.80;;;;;;8281548;28;20042;-45
2020/12/11 08:30:39;;;;;;;2.55;2.13;;;17.70;31.70;;;;;;8299060;28;20081;-46
2020/12/11 08:34:40;;;;;;;2.93;2.47;;;17.60;31.70;;;;;;8296636;28;20092;-45
2020/12/11 08:38:40;;;;;;;3.07;2.20;;;17.60;31.70;;;;;;8296770;28;20026;-45
2020/12/11 08:42:47;;;;;;;2.53;2.20;;;17.60;31.70;;;;;;8294518;28;20514;-46
2020/12/11 08:51:06;;;;;;;2.42;2.10;;;17.50;31.70;;;;;;8295780;28;20081;-46
2020/12/11 08:55:06;;;;;;;2.13;1.90;;;17.50;31.80;;;;;;8293915;28;20049;-45
2020/12/11 08:59:07;;;;;;;2.53;2.13;;;17.50;31.90;;;;;;8295622;28;20037;-45
2020/12/11 09:03:07;;;;;;;2.37;2.10;;;17.50;32.00;;;;;;8295542;28;20454;-45
2020/12/11 09:07:10;;;;;;;3.00;1.73;;;17.60;31.90;;;;;;8298354;28;20041;-45
2020/12/11 09:11:11;;;;;;;2.70;2.22;;;17.60;31.90;;;;;;8320985;28;20050;-45
2020/12/11 09:15:13;;;;;;;3.17;2.53;;;17.60;31.90;;;;;;8311828;28;20038;-46
2020/12/11 09:19:14;;;;;;;2.13;1.75;;;17.70;31.90;;;;;;8299418;28;20043;-47
2020/12/11 09:23:15;;;;;;;3.35;2.45;;;17.70;31.90;;;;;;8317777;28;20061;-47
2020/12/11 09:27:16;;;;;;;2.10;1.90;;;17.80;31.90;;;;;;8288446;28;20045;-46
2020/12/11 09:31:21;;;;;;;2.67;2.03;;;17.80;31.80;;;;;;8268104;28;20052;-44
2020/12/11 09:35:24;;;;;;;2.65;2.10;;;17.80;31.80;;;;;;8279267;28;20041;-46
2020/12/11 09:39:24;;;;;;;2.42;2.05;;;17.80;31.80;;;;;;8261988;28;20459;-45
2020/12/11 09:48:03;;;;;;;2.55;2.05;;;17.80;31.70;;;;;;8294311;28;20622;-45
2020/12/11 09:52:20;;;;;;;2.72;2.22;;;17.80;31.70;;;;;;8292650;28;20056;-45
2020/12/11 09:56:25;;;;;;;3.13;2.20;;;17.70;31.60;;;;;;8293691;28;20478;-46
2020/12/11 10:00:25;;;;;;;2.85;2.10;;;17.70;31.60;;;;;;8293728;28;20038;-46
2020/12/11 10:04:26;;;;;;;4.60;2.23;;;17.70;31.70;;;;;;8264840;28;20065;-46
2020/12/11 10:08:26;;;;;;;3.77;2.23;;;17.70;31.60;;;;;;8261394;28;20042;-45
2020/12/11 10:12:28;;;;;;;2.40;1.97;;;17.70;31.70;;;;;;8260814;28;20587;-46
2020/12/11 10:16:29;;;;;;;3.22;2.35;;;17.70;31.70;;;;;;8259371;28;20061;-46
2020/12/11 10:20:30;;;;;;;2.83;2.43;;;17.70;31.70;;;;;;8265236;28;20073;-45
2020/12/11 10:24:30;;;;;;;2.45;2.25;;;17.60;31.70;;;;;;8259203;28;20045;-44
2020/12/11 10:28:31;;;;;;;3.43;2.20;;;17.60;31.80;;;;;;8260661;28;20498;-45
2020/12/11 10:32:32;;;;;;;3.20;2.40;;;17.60;31.90;;;;;;8260472;28;20078;-45
2020/12/11 10:36:33;;;;;;;2.53;2.07;;;17.70;31.90;;;;;;8259282;28;20030;-44
2020/12/11 10:40:33;;;;;;;2.90;2.03;;;17.70;32.30;;;;;;8288039;28;20118;-47
2020/12/11 10:44:34;;;;;;;3.43;2.07;;;17.70;31.70;;;;;;8277089;28;20038;-45
2020/12/11 10:48:34;;;;;;;2.13;1.93;;;17.80;31.80;;;;;;8290856;28;20061;-46
2020/12/11 10:52:34;;;;;;;2.50;2.10;;;17.80;31.80;;;;;;8293137;28;20034;-46
2020/12/11 10:56:35;;;;;;;2.23;1.80;;;17.80;31.80;;;;;;8279896;28;20049;-46
2020/12/11 11:00:35;;;;;;;2.37;1.73;;;17.80;31.80;;;;;;8283035;28;20069;-46
2020/12/11 11:04:36;;;;;;;2.53;2.00;;;17.80;31.70;;;;;;8309314;28;20053;-46
2020/12/11 11:08:44;;;;;;;2.63;2.17;;;17.90;31.70;;;;;;8315893;28;20055;-46
2020/12/11 11:12:50;;;;;;;3.72;2.20;;;17.90;31.70;;;;;;8268212;28;20053;-46
2020/12/11 11:29:32;;;;;;;3.67;2.58;;;17.80;31.60;;;;;;8275558;28;20046;-46
2020/12/11 11:33:33;;;;;;;2.97;2.00;;;17.80;31.60;;;;;;8262212;28;20499;-47
2020/12/11 11:37:33;;;;;;;2.03;1.83;;;17.80;31.50;;;;;;8268104;28;20038;-46
2020/12/11 11:41:49;;;;;;;2.77;2.17;;;17.80;31.60;;;;;;8313897;28;20406;-46
2020/12/11 11:45:50;;;;;;;8.60;2.45;;;17.70;31.60;;;;;;8294848;28;20052;-46
2020/12/11 11:50:16;;;;;;;2.58;2.15;;;17.70;31.50;;;;;;8302455;28;20037;-47
2020/12/11 11:54:17;;;;;;;2.67;2.15;;;17.70;31.60;;;;;;8311760;28;20049;-46
2020/12/11 11:58:18;;;;;;;2.90;2.30;;;17.70;31.70;;;;;;8270919;28;20038;-45
2020/12/11 12:02:18;;;;;;;2.50;2.07;;;17.70;31.80;;;;;;8298061;28;20046;-46
2020/12/11 12:06:22;;;;;;;2.43;1.80;;;17.70;31.80;;;;;;8297461;28;20491;-46
2020/12/11 12:10:23;;;;;;;2.33;2.10;;;17.70;31.70;;;;;;8295190;28;20121;-47
2020/12/11 12:14:23;;;;;;;2.93;2.20;;;17.70;31.80;;;;;;8301536;28;20060;-49
2020/12/11 12:18:24;;;;;;;2.90;1.90;;;17.80;31.80;;;;;;8296774;28;20038;-47
2020/12/11 12:23:13;;;;;;;2.47;2.27;;;17.80;31.80;;;;;;8287739;28;20411;-46
2020/12/11 12:31:14;;;;;;;2.95;2.03;;;17.90;31.70;;;;;;8294795;28;20415;-47
2020/12/11 12:35:44;;;;;;;2.50;1.80;;;17.90;31.60;;;;;;8282737;28;20053;-47
2020/12/11 12:43:55;;;;;;;2.30;2.05;;;17.90;31.60;;;;;;8295867;28;20095;-47
2020/12/11 12:47:56;;;;;;;3.33;2.57;;;17.90;31.60;;;;;;8276897;28;20039;-49
2020/12/11 12:51:56;;;;;;;2.50;2.30;;;17.90;32.10;;;;;;8261828;28;20246;-47
2020/12/11 13:00:23;;;;;;;2.33;2.10;;;17.80;31.50;;;;;;8285967;28;20566;-46
2020/12/11 13:04:34;;;;;;;3.00;2.17;;;17.80;31.60;;;;;;8269081;28;20045;-47
2020/12/11 13:08:34;;;;;;;3.17;2.30;;;17.80;31.50;;;;;;8289431;28;20113;-46
2020/12/11 13:12:35;;;;;;;3.00;2.33;;;17.80;31.60;;;;;;8317699;28;20049;-47
2020/12/11 13:16:36;;;;;;;2.27;2.07;;;17.80;31.70;;;;;;8276355;28;20487;-47
2020/12/11 13:20:40;;;;;;;2.77;1.97;;;17.70;31.60;;;;;;8277760;28;20068;-47
2020/12/11 13:29:00;;;;;;;3.83;2.28;;;17.70;31.70;;;;;;8307065;28;20083;-46
2020/12/11 13:33:00;;;;;;;2.10;1.90;;;17.70;31.80;;;;;;8331790;28;20483;-46
2020/12/11 13:37:01;;;;;;;2.73;2.50;;;17.70;31.80;;;;;;8294325;28;20132;-46
2020/12/11 13:41:01;;;;;;;2.57;2.10;;;17.70;31.80;;;;;;8294422;28;20030;-47
2020/12/11 13:45:03;;;;;;;2.57;2.17;;;17.80;31.80;;;;;;8304540;28;20033;-46
2020/12/11 13:49:03;;;;;;;3.80;2.25;;;17.80;31.80;;;;;;8320473;28;20033;-46
2020/12/11 13:53:04;;;;;;;2.43;2.00;;;17.80;31.80;;;;;;8298385;28;20628;-46
2020/12/11 13:57:05;;;;;;;2.37;2.13;;;17.80;31.80;;;;;;8269313;28;20399;-48
2020/12/11 14:01:09;;;;;;;3.58;2.17;;;17.80;31.70;;;;;;8299064;28;20510;-49
2020/12/11 14:05:09;;;;;;;2.65;2.00;;;17.80;31.80;;;;;;8301390;28;20042;-46
2020/12/11 14:09:10;;;;;;;4.37;2.63;;;17.90;31.80;;;;;;8276031;28;20038;-47
2020/12/11 14:13:11;;;;;;;3.80;2.50;;;17.90;31.70;;;;;;8289031;28;20069;-50
2020/12/11 14:17:13;;;;;;;4.80;2.47;;;17.90;31.70;;;;;;8293552;28;20053;-47
2020/12/11 14:25:24;;;;;;;3.17;2.63;;;17.90;31.70;;;;;;8292304;28;20369;-47
2020/12/11 14:29:25;;;;;;;3.27;2.87;;;17.90;31.70;;;;;;8282209;28;20027;-47
2020/12/11 14:33:26;;;;;;;;;;;17.80;31.70;;;;;;8260804;28;20415;-48
2020/12/11 14:37:31;;;;;;;3.70;3.00;;;17.80;31.70;;;;;;8258468;28;19914;-48
2020/12/11 14:41:32;;;;;;;3.20;2.70;;;17.80;31.70;;;;;;8258202;28;20399;-45
2020/12/11 14:45:32;;;;;;;3.00;2.63;;;17.80;31.70;;;;;;8262803;28;20058;-43
2020/12/11 14:49:33;;;;;;;3.97;3.20;;;17.80;31.80;;;;;;8260303;28;20431;-47
2020/12/11 14:53:34;;;;;;;3.43;2.60;;;17.80;31.80;;;;;;8281131;28;20092;-44
2020/12/11 14:57:34;;;;;;;3.87;3.20;;;17.70;31.80;;;;;;8254257;28;20023;-47
2020/12/11 15:01:34;;;;;;;3.10;2.70;;;17.70;31.80;;;;;;8260108;28;20035;-46
2020/12/11 15:05:35;;;;;;;5.13;2.93;;;17.70;31.80;;;;;;8260104;28;20050;-46
2020/12/11 15:09:36;;;;;;;4.27;3.20;;;17.70;31.90;;;;;;8256529;28;20030;-47
2020/12/11 15:13:37;;;;;;;3.10;2.57;;;17.70;32.00;;;;;;8255450;28;20061;-46
2020/12/11 15:17:37;;;;;;;4.20;3.05;;;17.70;32.00;;;;;;8259389;28;20403;-46
2020/12/11 15:21:38;;;;;;;3.87;2.83;;;17.70;31.90;;;;;;8261104;28;20038;-44
2020/12/11 15:25:39;;;;;;;3.33;2.53;;;17.80;32.00;;;;;;8269833;28;20399;-48
2020/12/11 15:29:39;;;;;;;4.77;3.03;;;17.80;32.00;;;;;;8286524;28;20054;-50
2020/12/11 15:33:40;;;;;;;3.83;2.73;;;17.80;31.90;;;;;;8296506;28;20490;-48
2020/12/11 15:37:40;;;;;;;3.50;2.67;;;17.90;31.90;;;;;;8302580;28;20038;-46
2020/12/11 15:41:41;;;;;;;5.03;3.43;;;17.90;31.90;;;;;;8296786;28;20038;-46
2020/12/11 15:45:43;;;;;;;3.03;2.57;;;17.90;31.90;;;;;;8297108;28;20076;-48
2020/12/11 15:49:43;;;;;;;5.20;3.30;;;17.90;31.90;;;;;;8299328;28;20502;-45
2020/12/11 15:53:47;;;;;;;5.10;3.43;;;17.90;31.80;;;;;;8279741;28;20141;-49
2020/12/11 15:57:49;;;;;;;4.05;3.00;;;17.80;31.80;;;;;;8267205;28;20090;-46
2020/12/11 16:01:49;;;;;;;6.25;3.28;;;17.90;31.80;;;;;;8264406;28;20518;-46
2020/12/11 16:05:52;;;;;;;5.17;3.27;;;17.80;31.80;;;;;;8264058;28;20042;-44
2020/12/11 16:09:52;;;;;;;4.80;3.30;;;17.80;31.80;;;;;;8289723;28;20061;-46
2020/12/11 16:13:54;;;;;;;4.00;3.23;;;17.80;31.80;;;;;;8301012;28;20052;-45
2020/12/11 16:17:55;;;;;;;4.18;2.83;;;17.80;31.90;;;;;;8295963;28;20125;-46
2020/12/11 16:21:55;;;;;;;4.47;3.40;;;17.70;31.80;;;;;;8265136;28;20045;-45
2020/12/11 16:25:56;;;;;;;5.30;3.30;;;17.70;31.90;;;;;;8263475;28;20482;-45
2020/12/11 16:29:57;;;;;;;4.60;3.60;;;17.70;32.00;;;;;;8267687;28;20034;-46
2020/12/11 16:33:57;;;;;;;3.97;3.03;;;17.70;32.00;;;;;;8273193;28;20104;-45
2020/12/11 16:37:58;;;;;;;5.47;3.57;;;17.70;32.00;;;;;;8289894;28;20113;-47
2020/12/11 16:42:01;;;;;;;3.97;3.27;;;17.60;32.00;;;;;;8271872;28;20031;-47
2020/12/11 16:46:08;;;;;;;4.03;3.33;;;17.60;32.00;;;;;;8263328;28;20065;-47
2020/12/11 16:50:09;;;;;;;4.65;3.38;;;17.60;32.00;;;;;;8267548;28;20034;-47
2020/12/11 16:54:09;;;;;;;4.70;3.23;;;17.70;32.00;;;;;;8282205;28;20050;-47
2020/12/11 16:58:10;;;;;;;5.00;3.63;;;17.70;32.00;;;;;;8305226;28;20395;-46
2020/12/11 17:02:12;;;;;;;5.40;3.30;;;17.70;32.00;;;;;;8278456;28;20037;-45
2020/12/11 17:10:28;;;;;;;6.00;3.30;;;17.80;32.00;;;;;;8261556;28;20034;-46
2020/12/11 17:14:28;;;;;;;4.87;3.33;;;17.80;32.00;;;;;;8262792;28;20065;-46
2020/12/11 17:18:30;;;;;;;4.50;3.50;;;17.80;32.00;;;;;;8274946;28;20037;-45
2020/12/11 17:22:31;;;;;;;;;;;17.80;31.90;;;;;;8294135;28;20104;-45
2020/12/11 17:26:33;;;;;;;5.03;3.40;;;17.80;31.90;;;;;;8299177;28;19941;-46
2020/12/11 17:34:52;;;;;;;4.53;3.50;;;17.80;32.00;;;;;;8262394;28;20069;-48
2020/12/11 17:38:53;;;;;;;7.07;3.75;;;17.80;32.00;;;;;;8281938;28;20038;-47
2020/12/11 17:42:54;;;;;;;17.97;5.23;;;17.90;32.20;;;;;;8295079;28;20141;-46
2020/12/11 17:46:55;;;;;;;19.52;4.85;;;17.90;32.20;;;;;;8297193;28;20061;-47
2020/12/11 17:50:55;;;;;;;23.63;5.37;;;18.00;32.20;;;;;;8292849;28;20565;-46
2020/12/11 17:54:56;;;;;;;14.23;5.23;;;18.00;32.20;;;;;;8292547;28;20030;-46
2020/12/11 17:58:57;;;;;;;18.80;5.00;;;18.00;32.20;;;;;;8294007;28;20411;-46
2020/12/11 18:02:57;;;;;;;11.57;4.73;;;18.00;32.30;;;;;;8297633;28;20042;-47
2020/12/11 18:06:58;;;;;;;14.40;4.77;;;17.90;32.40;;;;;;8291177;28;20280;-47
2020/12/11 18:10:58;;;;;;;12.53;4.67;;;18.00;32.50;;;;;;8292652;28;20184;-47
2020/12/11 18:14:59;;;;;;;15.33;4.70;;;17.90;32.60;;;;;;8292396;28;20030;-48
2020/12/11 18:19:00;;;;;;;8.43;4.23;;;17.90;32.60;;;;;;8281407;28;20064;-45
2020/12/11 18:23:02;;;;;;;9.13;4.18;;;17.90;32.60;;;;;;8274643;28;20042;-46
2020/12/11 18:27:03;;;;;;;;;;;18.00;32.70;;;;;;8289600;28;20025;-46
2020/12/11 18:31:03;;;;;;;6.97;4.70;;;18.00;32.70;;;;;;8288984;28;19922;-47
2020/12/11 18:35:04;;;;;;;10.43;5.27;;;18.00;32.80;;;;;;8290011;28;20861;-46
2020/12/11 18:39:04;;;;;;;10.40;4.47;;;18.10;32.90;;;;;;8294041;28;20053;-45
2020/12/11 18:43:05;;;;;;;6.70;5.10;;;18.10;32.80;;;;;;8288140;28;20042;-47
2020/12/11 18:47:06;;;;;;;8.43;4.97;;;18.20;32.90;;;;;;8291218;28;20547;-46
2020/12/11 18:51:06;;;;;;;10.10;4.67;;;18.20;32.80;;;;;;8284375;28;20038;-49
2020/12/11 18:55:15;;;;;;;10.93;4.90;;;18.20;32.60;;;;;;8293953;28;20037;-46
2020/12/11 18:59:16;;;;;;;11.32;4.82;;;18.20;33.10;;;;;;8277941;28;20034;-44
2020/12/11 19:03:17;;;;;;;11.15;4.72;;;18.30;33.60;;;;;;8291843;28;20045;-46
2020/12/11 19:07:18;;;;;;;11.87;6.67;;;18.40;33.80;;;;;;8268547;28;20083;-46
2020/12/11 19:11:22;;;;;;;9.10;4.93;;;18.30;32.80;;;;;;8312102;28;20050;-46
2020/12/11 19:15:23;;;;;;;10.00;4.95;;;18.20;33.00;;;;;;8285873;28;20100;-46
2020/12/11 19:19:24;;;;;;;10.20;5.13;;;18.20;33.20;;;;;;8290093;28;20113;-46
2020/12/11 19:23:25;;;;;;;20.45;11.55;;;18.30;33.40;;;;;;8284616;28;20042;-44
2020/12/11 19:27:25;;;;;;;14.03;7.37;;;18.10;31.50;;;;;;8269149;28;20450;-44
2020/12/11 19:31:26;;;;;;;9.83;6.90;;;17.90;33.10;;;;;;8296463;28;20049;-44
2020/12/11 19:35:26;;;;;;;12.30;7.57;;;17.90;33.40;;;;;;8285432;28;20030;-44
2020/12/11 19:39:27;;;;;;;18.87;7.93;;;18.00;33.30;;;;;;8260868;28;20092;-44
2020/12/11 19:43:28;;;;;;;15.07;7.77;;;18.10;33.80;;;;;;8250904;28;20500;-44
2020/12/11 19:47:28;;;;;;;12.17;7.43;;;18.10;33.10;;;;;;8273203;28;20096;-46
2020/12/11 19:51:29;;;;;;;9.90;6.50;;;18.20;33.10;;;;;;8285355;28;20053;-44
2020/12/11 19:55:29;;;;;;;9.10;6.77;;;18.30;33.10;;;;;;8250397;28;20049;-45
2020/12/11 19:59:30;;;;;;;12.37;6.57;;;18.40;33.10;;;;;;8252365;28;20082;-44
2020/12/11 20:03:31;;;;;;;8.90;6.10;;;18.40;33.10;;;;;;8251439;28;20042;-44
2020/12/11 20:11:35;;;;;;;15.82;9.90;;;18.50;33.00;;;;;;8264066;28;20054;-46
2020/12/11 20:15:41;;;;;;;14.20;7.63;;;18.20;31.40;;;;;;8256515;28;20045;-45
2020/12/11 20:19:41;;;;;;;12.57;6.93;;;18.00;32.80;;;;;;8259033;28;20057;-46
2020/12/11 20:23:44;;;;;;;11.23;7.47;;;18.10;32.90;;;;;;8262407;28;20093;-46
2020/12/11 20:27:44;;;;;;;9.98;6.53;;;18.20;32.70;;;;;;8258999;28;20411;-45
2020/12/11 20:31:45;;;;;;;9.10;6.37;;;18.30;32.60;;;;;;8279765;28;20054;-45
2020/12/11 20:35:46;;;;;;;12.02;7.18;;;18.40;32.60;;;;;;8257818;28;20053;-48
2020/12/11 20:39:46;;;;;;;13.47;7.90;;;18.50;32.60;;;;;;8274878;28;20038;-46
2020/12/11 20:43:47;;;;;;;14.33;7.33;;;18.50;32.10;;;;;;8281522;28;20038;-48
2020/12/11 20:47:47;;;;;;;14.73;7.93;;;18.30;32.80;;;;;;8271108;28;20034;-46
2020/12/11 20:51:48;;;;;;;10.07;6.73;;;18.30;33.40;;;;;;8259295;28;20145;-48
2020/12/11 20:55:49;;;;;;;13.63;7.73;;;18.40;34.10;;;;;;8265038;28;20454;-46
2020/12/11 20:59:51;;;;;;;9.80;6.17;;;18.40;34.30;;;;;;8289868;28;20539;-46
2020/12/11 21:03:53;;;;;;;9.57;6.22;;;18.50;34.40;;;;;;8285159;28;20076;-47
2020/12/11 21:07:53;;;;;;;18.17;10.80;;;18.60;34.30;;;;;;8284146;28;20042;-46
2020/12/11 21:11:54;;;;;;;13.90;7.38;;;18.50;31.80;;;;;;8286816;28;20124;-46
2020/12/11 21:15:55;;;;;;;12.70;7.40;;;18.30;33.60;;;;;;8288398;28;20042;-46
2020/12/11 21:19:55;;;;;;;10.73;7.13;;;18.30;33.70;;;;;;8285269;28;20148;-48
2020/12/11 21:23:56;;;;;;;11.03;7.67;;;18.50;33.90;;;;;;8286565;28;20388;-49
2020/12/11 21:27:56;;;;;;;10.47;7.23;;;18.60;34.40;;;;;;8277666;28;20045;-49
2020/12/11 21:31:57;;;;;;;9.67;6.27;;;18.70;34.00;;;;;;8285902;28;20042;-46
2020/12/11 21:35:58;;;;;;;13.73;6.70;;;18.70;33.80;;;;;;8289507;28;20402;-46
2020/12/11 21:39:59;;;;;;;8.25;6.03;;;18.80;33.60;;;;;;8283366;28;20061;-48
2020/12/11 21:43:59;;;;;;;9.33;6.00;;;18.80;33.70;;;;;;8272840;28;20046;-47
2020/12/11 21:48:00;;;;;;;11.57;6.37;;;18.90;33.70;;;;;;8271420;28;20491;-48
2020/12/11 21:52:03;;;;;;;8.02;6.10;;;18.90;33.60;;;;;;8287945;28;20281;-47